Osmond, NE

5:25 AM CST on February 13, 2016 (GMT -0600)
KNENELIG1 | | Change Station
CLOSE
Current Station
Personal Weather Station
Location: Neligh, NE
Elevation: 1750 ft
Nearby Weather Stations

Elev 1750 ft 42.13 °N, 98.03 °W | Updated 5 seconds ago

Overcast
Overcast
12.8 °F
Feels Like 13 °F
N
2.0
Wind Variable Wind from SE
Gusts 7.0 mph

Today
High -- | Low -- °F
--% Chance of Precip.
Yesterday
High -- | Low -- °F
Precip. -- in
Pressure 30.62 in
Visibility 10.0 miles
Clouds Overcast 7500 ft
Windchill 13 °F
Dew Point 8 °F
Humidity 82%
Rainfall 0.00 in
Snow Depth Not available.
7:30 AM 6:00 PM
Waxing Crescent, 29% visible
METAR KOFK 131056Z AUTO 14007KT 10SM OVC075 M12/M17 A3052 RMK AO2 SLP368 T11171167
Pressure 30.62 in
Visibility 10.0 miles
Clouds Overcast 7500 ft
Windchill 13 °F
Dew Point 8 °F
Humidity 82%
Rainfall 0.00 in
Snow Depth Not available.
7:30 AM 6:00 PM
Waxing Crescent, 29% visible
METAR KOFK 131056Z AUTO 14007KT 10SM OVC075 M12/M17 A3052 RMK AO2 SLP368 T11171167

10-Day Weather Forecast

Almanac

Astronomy

Feb. 13, 2016 Rise Set
Actual Time
Civil Twilight
Nautical Twilight
Astronomical Twilight
Moon
Length of Visible Light
Length of Day
Tomorrow will be .
, % of the Moon is Illuminated

Today's Extremes

State Highs State Lows

Community

WunderPhotos

Upload Photos

1,892,541 photos uploaded!

WunderBlog® & News

Nearby

Air Quality

  Air Quality AQ Index Pollutant
Not available.

Snow Depth

Station Depth Elevation

Earthquake Activity

City Distance Mag. Time & Date
Minimum magnitude displayed is 2.5.

Coastal Water Temperatures

Place Temperature

Stations

Nearby Weather Stations

Station Location Temp. Windchill Dew Point Humidity Wind Precip. Elev Updated Type
                   

Watches & Warnings

There are currently no watches in effect.